sensor_id;sensor_type;location;lat;lon;timestamp;P1;durP1;ratioP1;P2;durP2;ratioP2
1691;SDS011;843;52.054;8.552;2023-11-22T00:02:00;9.23;;;6.47;;
1691;SDS011;843;52.054;8.552;2023-11-22T00:04:26;8.13;;;6.40;;
1691;SDS011;843;52.054;8.552;2023-11-22T00:06:54;8.40;;;6.57;;
1691;SDS011;843;52.054;8.552;2023-11-22T00:09:20;9.00;;;6.00;;
1691;SDS011;843;52.054;8.552;2023-11-22T00:11:48;7.77;;;6.00;;
1691;SDS011;843;52.054;8.552;2023-11-22T00:14:14;9.43;;;6.77;;
1691;SDS011;843;52.054;8.552;2023-11-22T00:16:41;7.67;;;6.87;;
1691;SDS011;843;52.054;8.552;2023-11-22T00:19:07;8.57;;;6.40;;
1691;SDS011;843;52.054;8.552;2023-11-22T00:21:34;7.20;;;6.30;;
1691;SDS011;843;52.054;8.552;2023-11-22T00:24:02;7.80;;;6.17;;
1691;SDS011;843;52.054;8.552;2023-11-22T00:26:30;9.40;;;7.13;;
1691;SDS011;843;52.054;8.552;2023-11-22T00:28:57;11.00;;;6.87;;
1691;SDS011;843;52.054;8.552;2023-11-22T00:31:23;11.00;;;6.10;;
1691;SDS011;843;52.054;8.552;2023-11-22T00:33:50;9.43;;;6.77;;
1691;SDS011;843;52.054;8.552;2023-11-22T00:36:16;6.33;;;5.73;;
1691;SDS011;843;52.054;8.552;2023-11-22T00:38:43;10.37;;;5.73;;
1691;SDS011;843;52.054;8.552;2023-11-22T00:41:12;9.40;;;6.33;;
1691;SDS011;843;52.054;8.552;2023-11-22T00:43:39;13.73;;;7.50;;
1691;SDS011;843;52.054;8.552;2023-11-22T00:46:06;9.27;;;6.83;;
1691;SDS011;843;52.054;8.552;2023-11-22T00:48:32;7.97;;;6.47;;
1691;SDS011;843;52.054;8.552;2023-11-22T00:50:58;11.33;;;6.87;;
1691;SDS011;843;52.054;8.552;2023-11-22T00:53:25;9.47;;;6.00;;
1691;SDS011;843;52.054;8.552;2023-11-22T00:55:51;7.00;;;6.03;;
1691;SDS011;843;52.054;8.552;2023-11-22T00:58:19;9.03;;;6.40;;
1691;SDS011;843;52.054;8.552;2023-11-22T01:00:46;8.53;;;6.53;;
1691;SDS011;843;52.054;8.552;2023-11-22T01:03:12;10.73;;;6.60;;
1691;SDS011;843;52.054;8.552;2023-11-22T01:05:39;7.83;;;6.00;;
1691;SDS011;843;52.054;8.552;2023-11-22T01:08:07;8.07;;;6.60;;
1691;SDS011;843;52.054;8.552;2023-11-22T01:10:34;7.73;;;5.93;;
1691;SDS011;843;52.054;8.552;2023-11-22T01:13:00;8.70;;;6.10;;
1691;SDS011;843;52.054;8.552;2023-11-22T01:15:28;9.37;;;6.20;;
1691;SDS011;843;52.054;8.552;2023-11-22T01:17:54;6.67;;;5.53;;
1691;SDS011;843;52.054;8.552;2023-11-22T01:20:21;10.67;;;6.23;;
1691;SDS011;843;52.054;8.552;2023-11-22T01:22:48;9.00;;;6.70;;
1691;SDS011;843;52.054;8.552;2023-11-22T01:25:14;7.90;;;6.13;;
1691;SDS011;843;52.054;8.552;2023-11-22T01:27:41;6.67;;;6.00;;
1691;SDS011;843;52.054;8.552;2023-11-22T01:30:07;6.20;;;5.17;;
1691;SDS011;843;52.054;8.552;2023-11-22T01:32:36;9.47;;;6.17;;
1691;SDS011;843;52.054;8.552;2023-11-22T01:35:02;7.57;;;6.03;;
1691;SDS011;843;52.054;8.552;2023-11-22T01:37:30;8.13;;;6.23;;
1691;SDS011;843;52.054;8.552;2023-11-22T01:39:57;9.60;;;6.13;;
1691;SDS011;843;52.054;8.552;2023-11-22T01:42:23;8.50;;;6.63;;
1691;SDS011;843;52.054;8.552;2023-11-22T01:44:50;8.00;;;5.77;;
1691;SDS011;843;52.054;8.552;2023-11-22T01:47:17;8.90;;;5.80;;
1691;SDS011;843;52.054;8.552;2023-11-22T01:49:46;8.00;;;5.87;;
1691;SDS011;843;52.054;8.552;2023-11-22T01:52:12;8.50;;;6.50;;
1691;SDS011;843;52.054;8.552;2023-11-22T01:54:39;7.03;;;6.20;;
1691;SDS011;843;52.054;8.552;2023-11-22T01:57:07;9.83;;;6.33;;
1691;SDS011;843;52.054;8.552;2023-11-22T01:59:34;7.13;;;6.07;;
1691;SDS011;843;52.054;8.552;2023-11-22T02:02:01;7.30;;;6.10;;
1691;SDS011;843;52.054;8.552;2023-11-22T02:04:28;7.57;;;6.20;;
1691;SDS011;843;52.054;8.552;2023-11-22T02:06:56;10.10;;;6.20;;
1691;SDS011;843;52.054;8.552;2023-11-22T02:09:22;10.90;;;6.13;;
1691;SDS011;843;52.054;8.552;2023-11-22T02:11:50;6.63;;;5.90;;
1691;SDS011;843;52.054;8.552;2023-11-22T02:14:17;8.70;;;6.40;;
1691;SDS011;843;52.054;8.552;2023-11-22T02:16:44;5.87;;;5.30;;
1691;SDS011;843;52.054;8.552;2023-11-22T02:19:13;7.50;;;5.60;;
1691;SDS011;843;52.054;8.552;2023-11-22T02:21:40;10.30;;;5.30;;
1691;SDS011;843;52.054;8.552;2023-11-22T02:24:08;8.73;;;6.10;;
1691;SDS011;843;52.054;8.552;2023-11-22T02:26:35;7.90;;;6.20;;
1691;SDS011;843;52.054;8.552;2023-11-22T02:29:01;7.07;;;6.17;;
1691;SDS011;843;52.054;8.552;2023-11-22T02:31:29;8.73;;;6.17;;
1691;SDS011;843;52.054;8.552;2023-11-22T02:33:55;9.20;;;6.40;;
1691;SDS011;843;52.054;8.552;2023-11-22T02:36:22;6.53;;;5.30;;
1691;SDS011;843;52.054;8.552;2023-11-22T02:38:49;9.13;;;6.20;;
1691;SDS011;843;52.054;8.552;2023-11-22T02:41:17;7.13;;;5.73;;
1691;SDS011;843;52.054;8.552;2023-11-22T02:43:44;8.40;;;6.37;;
1691;SDS011;843;52.054;8.552;2023-11-22T02:46:11;8.27;;;6.40;;
1691;SDS011;843;52.054;8.552;2023-11-22T02:48:37;7.90;;;5.70;;
1691;SDS011;843;52.054;8.552;2023-11-22T02:51:04;7.83;;;6.60;;
1691;SDS011;843;52.054;8.552;2023-11-22T02:53:31;7.30;;;5.57;;
1691;SDS011;843;52.054;8.552;2023-11-22T02:55:59;7.13;;;6.30;;
1691;SDS011;843;52.054;8.552;2023-11-22T02:58:26;8.73;;;5.63;;
1691;SDS011;843;52.054;8.552;2023-11-22T03:00:53;5.53;;;4.90;;
1691;SDS011;843;52.054;8.552;2023-11-22T03:03:20;6.50;;;5.53;;
1691;SDS011;843;52.054;8.552;2023-11-22T03:05:46;5.97;;;5.20;;
1691;SDS011;843;52.054;8.552;2023-11-22T03:08:12;8.07;;;5.80;;
1691;SDS011;843;52.054;8.552;2023-11-22T03:10:41;8.20;;;5.67;;
1691;SDS011;843;52.054;8.552;2023-11-22T03:13:07;7.83;;;5.87;;
1691;SDS011;843;52.054;8.552;2023-11-22T03:15:36;6.63;;;5.77;;
1691;SDS011;843;52.054;8.552;2023-11-22T03:18:02;6.83;;;5.73;;
1691;SDS011;843;52.054;8.552;2023-11-22T03:20:31;7.63;;;6.07;;
1691;SDS011;843;52.054;8.552;2023-11-22T03:22:57;9.00;;;6.67;;
1691;SDS011;843;52.054;8.552;2023-11-22T03:25:25;9.00;;;6.67;;
1691;SDS011;843;52.054;8.552;2023-11-22T03:27:51;8.70;;;5.90;;
1691;SDS011;843;52.054;8.552;2023-11-22T03:30:20;7.53;;;5.73;;
1691;SDS011;843;52.054;8.552;2023-11-22T03:32:48;7.03;;;6.30;;
1691;SDS011;843;52.054;8.552;2023-11-22T03:35:15;8.17;;;5.90;;
1691;SDS011;843;52.054;8.552;2023-11-22T03:37:41;10.07;;;5.63;;
1691;SDS011;843;52.054;8.552;2023-11-22T03:40:08;8.03;;;5.50;;
1691;SDS011;843;52.054;8.552;2023-11-22T03:42:35;7.27;;;5.53;;
1691;SDS011;843;52.054;8.552;2023-11-22T03:45:02;7.13;;;4.60;;
1691;SDS011;843;52.054;8.552;2023-11-22T03:47:28;8.03;;;6.00;;
1691;SDS011;843;52.054;8.552;2023-11-22T03:49:56;6.07;;;5.10;;
1691;SDS011;843;52.054;8.552;2023-11-22T03:52:22;9.80;;;5.40;;
1691;SDS011;843;52.054;8.552;2023-11-22T03:54:49;7.77;;;5.90;;
1691;SDS011;843;52.054;8.552;2023-11-22T03:57:15;8.17;;;5.73;;
1691;SDS011;843;52.054;8.552;2023-11-22T03:59:42;8.50;;;6.30;;
1691;SDS011;843;52.054;8.552;2023-11-22T04:02:08;7.27;;;6.00;;
1691;SDS011;843;52.054;8.552;2023-11-22T04:04:34;8.07;;;6.20;;
1691;SDS011;843;52.054;8.552;2023-11-22T04:07:03;9.23;;;6.40;;
1691;SDS011;843;52.054;8.552;2023-11-22T04:09:29;8.67;;;5.60;;
1691;SDS011;843;52.054;8.552;2023-11-22T04:11:56;9.77;;;6.77;;
1691;SDS011;843;52.054;8.552;2023-11-22T04:14:23;6.43;;;5.57;;
1691;SDS011;843;52.054;8.552;2023-11-22T04:16:49;7.47;;;6.03;;
1691;SDS011;843;52.054;8.552;2023-11-22T04:19:15;6.90;;;5.50;;
1691;SDS011;843;52.054;8.552;2023-11-22T04:21:42;10.87;;;6.20;;
1691;SDS011;843;52.054;8.552;2023-11-22T04:24:10;7.60;;;6.17;;
1691;SDS011;843;52.054;8.552;2023-11-22T04:26:37;7.23;;;6.40;;
1691;SDS011;843;52.054;8.552;2023-11-22T04:29:03;9.53;;;6.50;;
1691;SDS011;843;52.054;8.552;2023-11-22T04:31:30;11.77;;;6.73;;
1691;SDS011;843;52.054;8.552;2023-11-22T04:33:57;6.93;;;6.23;;
1691;SDS011;843;52.054;8.552;2023-11-22T04:36:25;8.27;;;6.60;;
1691;SDS011;843;52.054;8.552;2023-11-22T04:38:51;7.90;;;5.83;;
1691;SDS011;843;52.054;8.552;2023-11-22T04:41:19;9.80;;;6.87;;
1691;SDS011;843;52.054;8.552;2023-11-22T04:43:45;12.63;;;6.67;;
1691;SDS011;843;52.054;8.552;2023-11-22T04:46:12;16.50;;;5.50;;
1691;SDS011;843;52.054;8.552;2023-11-22T04:48:38;6.50;;;5.87;;
1691;SDS011;843;52.054;8.552;2023-11-22T04:51:06;8.97;;;6.10;;
1691;SDS011;843;52.054;8.552;2023-11-22T04:53:33;10.20;;;6.77;;
1691;SDS011;843;52.054;8.552;2023-11-22T04:56:00;6.60;;;5.70;;
1691;SDS011;843;52.054;8.552;2023-11-22T04:58:31;11.37;;;5.70;;
1691;SDS011;843;52.054;8.552;2023-11-22T05:00:58;9.73;;;6.07;;
1691;SDS011;843;52.054;8.552;2023-11-22T05:03:24;13.93;;;7.13;;
1691;SDS011;843;52.054;8.552;2023-11-22T05:05:51;9.43;;;5.90;;
1691;SDS011;843;52.054;8.552;2023-11-22T05:08:17;7.87;;;5.77;;
1691;SDS011;843;52.054;8.552;2023-11-22T05:10:43;8.67;;;5.97;;
1691;SDS011;843;52.054;8.552;2023-11-22T05:13:10;8.33;;;6.60;;
1691;SDS011;843;52.054;8.552;2023-11-22T05:15:38;6.80;;;6.10;;
1691;SDS011;843;52.054;8.552;2023-11-22T05:18:03;7.60;;;6.10;;
1691;SDS011;843;52.054;8.552;2023-11-22T05:20:31;9.07;;;6.67;;
1691;SDS011;843;52.054;8.552;2023-11-22T05:22:57;9.10;;;6.50;;
1691;SDS011;843;52.054;8.552;2023-11-22T05:25:24;11.33;;;6.90;;
1691;SDS011;843;52.054;8.552;2023-11-22T05:27:54;8.23;;;6.17;;
1691;SDS011;843;52.054;8.552;2023-11-22T05:30:20;8.03;;;6.50;;
1691;SDS011;843;52.054;8.552;2023-11-22T05:32:49;7.93;;;6.10;;
1691;SDS011;843;52.054;8.552;2023-11-22T05:35:16;11.23;;;7.80;;
1691;SDS011;843;52.054;8.552;2023-11-22T05:37:43;7.97;;;7.27;;
1691;SDS011;843;52.054;8.552;2023-11-22T05:40:09;9.60;;;8.60;;
1691;SDS011;843;52.054;8.552;2023-11-22T05:42:36;9.50;;;7.50;;
1691;SDS011;843;52.054;8.552;2023-11-22T05:45:02;8.80;;;7.10;;
1691;SDS011;843;52.054;8.552;2023-11-22T05:47:31;7.27;;;6.33;;
1691;SDS011;843;52.054;8.552;2023-11-22T05:49:59;11.13;;;6.63;;
1691;SDS011;843;52.054;8.552;2023-11-22T05:52:25;9.87;;;7.47;;
1691;SDS011;843;52.054;8.552;2023-11-22T05:54:52;8.83;;;6.50;;
1691;SDS011;843;52.054;8.552;2023-11-22T05:57:18;7.57;;;6.50;;
1691;SDS011;843;52.054;8.552;2023-11-22T05:59:45;10.40;;;6.67;;
1691;SDS011;843;52.054;8.552;2023-11-22T06:02:12;8.83;;;6.30;;
1691;SDS011;843;52.054;8.552;2023-11-22T06:04:39;11.50;;;7.10;;
1691;SDS011;843;52.054;8.552;2023-11-22T06:07:07;9.00;;;6.80;;
1691;SDS011;843;52.054;8.552;2023-11-22T06:09:33;15.13;;;7.93;;
1691;SDS011;843;52.054;8.552;2023-11-22T06:12:01;11.00;;;6.90;;
1691;SDS011;843;52.054;8.552;2023-11-22T06:14:27;8.23;;;6.40;;
1691;SDS011;843;52.054;8.552;2023-11-22T06:16:54;7.60;;;5.90;;
1691;SDS011;843;52.054;8.552;2023-11-22T06:19:20;13.60;;;5.83;;
1691;SDS011;843;52.054;8.552;2023-11-22T06:21:46;10.90;;;6.23;;
1691;SDS011;843;52.054;8.552;2023-11-22T06:24:14;11.60;;;6.93;;
1691;SDS011;843;52.054;8.552;2023-11-22T06:26:42;10.80;;;6.60;;
1691;SDS011;843;52.054;8.552;2023-11-22T06:29:08;8.90;;;6.60;;
1691;SDS011;843;52.054;8.552;2023-11-22T06:31:35;11.67;;;7.07;;
1691;SDS011;843;52.054;8.552;2023-11-22T06:34:01;11.77;;;7.47;;
1691;SDS011;843;52.054;8.552;2023-11-22T06:36:27;11.67;;;7.40;;
1691;SDS011;843;52.054;8.552;2023-11-22T06:38:54;9.50;;;7.43;;
1691;SDS011;843;52.054;8.552;2023-11-22T06:41:22;11.50;;;7.43;;
1691;SDS011;843;52.054;8.552;2023-11-22T06:43:48;8.80;;;6.90;;
1691;SDS011;843;52.054;8.552;2023-11-22T06:46:15;9.10;;;7.53;;
1691;SDS011;843;52.054;8.552;2023-11-22T06:48:42;12.50;;;8.30;;
1691;SDS011;843;52.054;8.552;2023-11-22T06:51:09;13.00;;;7.97;;
1691;SDS011;843;52.054;8.552;2023-11-22T06:53:35;14.00;;;7.87;;
1691;SDS011;843;52.054;8.552;2023-11-22T06:56:02;10.87;;;7.20;;
1691;SDS011;843;52.054;8.552;2023-11-22T06:58:30;9.20;;;7.50;;
1691;SDS011;843;52.054;8.552;2023-11-22T07:00:56;9.50;;;7.50;;
1691;SDS011;843;52.054;8.552;2023-11-22T07:03:23;11.73;;;8.70;;
1691;SDS011;843;52.054;8.552;2023-11-22T07:05:49;11.07;;;7.10;;
1691;SDS011;843;52.054;8.552;2023-11-22T07:08:16;10.20;;;7.30;;
1691;SDS011;843;52.054;8.552;2023-11-22T07:10:42;13.17;;;7.90;;
1691;SDS011;843;52.054;8.552;2023-11-22T07:13:10;11.20;;;7.50;;
1691;SDS011;843;52.054;8.552;2023-11-22T07:15:37;13.10;;;9.17;;
1691;SDS011;843;52.054;8.552;2023-11-22T07:18:04;18.57;;;8.90;;
1691;SDS011;843;52.054;8.552;2023-11-22T07:20:30;14.80;;;7.63;;
1691;SDS011;843;52.054;8.552;2023-11-22T07:22:57;18.43;;;8.97;;
1691;SDS011;843;52.054;8.552;2023-11-22T07:25:25;10.60;;;8.40;;
1691;SDS011;843;52.054;8.552;2023-11-22T07:27:51;9.53;;;7.83;;
1691;SDS011;843;52.054;8.552;2023-11-22T07:30:18;12.60;;;9.30;;
1691;SDS011;843;52.054;8.552;2023-11-22T07:32:49;14.97;;;8.53;;
1691;SDS011;843;52.054;8.552;2023-11-22T07:35:15;11.87;;;8.50;;
1691;SDS011;843;52.054;8.552;2023-11-22T07:37:41;12.77;;;7.47;;
1691;SDS011;843;52.054;8.552;2023-11-22T07:40:08;14.93;;;8.40;;
1691;SDS011;843;52.054;8.552;2023-11-22T07:42:36;14.70;;;9.40;;
1691;SDS011;843;52.054;8.552;2023-11-22T07:45:03;21.20;;;9.07;;
1691;SDS011;843;52.054;8.552;2023-11-22T07:47:30;20.30;;;8.53;;
1691;SDS011;843;52.054;8.552;2023-11-22T07:49:57;11.70;;;8.90;;
1691;SDS011;843;52.054;8.552;2023-11-22T07:52:26;11.90;;;8.67;;
1691;SDS011;843;52.054;8.552;2023-11-22T07:54:55;9.63;;;8.50;;
1691;SDS011;843;52.054;8.552;2023-11-22T07:57:21;13.30;;;9.27;;
1691;SDS011;843;52.054;8.552;2023-11-22T07:59:48;13.10;;;8.47;;
1691;SDS011;843;52.054;8.552;2023-11-22T08:02:14;13.93;;;9.97;;
1691;SDS011;843;52.054;8.552;2023-11-22T08:04:43;9.53;;;8.50;;
1691;SDS011;843;52.054;8.552;2023-11-22T08:07:11;10.70;;;8.80;;
1691;SDS011;843;52.054;8.552;2023-11-22T08:09:40;11.30;;;8.90;;
1691;SDS011;843;52.054;8.552;2023-11-22T08:12:06;16.10;;;9.50;;
1691;SDS011;843;52.054;8.552;2023-11-22T08:14:33;10.40;;;8.50;;
1691;SDS011;843;52.054;8.552;2023-11-22T08:16:59;11.03;;;9.93;;
1691;SDS011;843;52.054;8.552;2023-11-22T08:19:26;10.40;;;8.80;;
1691;SDS011;843;52.054;8.552;2023-11-22T08:21:53;10.27;;;9.27;;
1691;SDS011;843;52.054;8.552;2023-11-22T08:24:21;10.13;;;8.87;;
1691;SDS011;843;52.054;8.552;2023-11-22T08:26:47;10.53;;;9.27;;
1691;SDS011;843;52.054;8.552;2023-11-22T08:29:14;11.73;;;9.50;;
1691;SDS011;843;52.054;8.552;2023-11-22T08:31:41;10.40;;;9.50;;
1691;SDS011;843;52.054;8.552;2023-11-22T08:34:07;10.07;;;9.07;;
1691;SDS011;843;52.054;8.552;2023-11-22T08:36:36;15.03;;;13.87;;
1691;SDS011;843;52.054;8.552;2023-11-22T08:39:04;10.57;;;9.47;;
1691;SDS011;843;52.054;8.552;2023-11-22T08:41:32;11.17;;;9.40;;
1691;SDS011;843;52.054;8.552;2023-11-22T08:43:59;9.30;;;8.47;;
1691;SDS011;843;52.054;8.552;2023-11-22T08:46:26;9.10;;;8.40;;
1691;SDS011;843;52.054;8.552;2023-11-22T08:48:52;9.07;;;8.17;;
1691;SDS011;843;52.054;8.552;2023-11-22T08:51:18;9.77;;;8.87;;
1691;SDS011;843;52.054;8.552;2023-11-22T08:53:45;9.43;;;8.63;;
1691;SDS011;843;52.054;8.552;2023-11-22T08:56:11;10.50;;;8.80;;
1691;SDS011;843;52.054;8.552;2023-11-22T08:58:39;9.50;;;8.23;;
1691;SDS011;843;52.054;8.552;2023-11-22T09:01:05;9.80;;;8.10;;
1691;SDS011;843;52.054;8.552;2023-11-22T09:03:33;9.63;;;8.63;;
1691;SDS011;843;52.054;8.552;2023-11-22T09:05:59;9.30;;;8.47;;
1691;SDS011;843;52.054;8.552;2023-11-22T09:08:28;9.53;;;8.80;;
1691;SDS011;843;52.054;8.552;2023-11-22T09:10:55;10.13;;;9.00;;
1691;SDS011;843;52.054;8.552;2023-11-22T09:13:21;9.13;;;8.23;;
1691;SDS011;843;52.054;8.552;2023-11-22T09:15:49;9.13;;;8.33;;
1691;SDS011;843;52.054;8.552;2023-11-22T09:18:15;9.07;;;8.27;;
1691;SDS011;843;52.054;8.552;2023-11-22T09:20:42;10.20;;;8.07;;
1691;SDS011;843;52.054;8.552;2023-11-22T09:23:10;11.50;;;8.20;;
1691;SDS011;843;52.054;8.552;2023-11-22T09:25:37;9.40;;;8.53;;
1691;SDS011;843;52.054;8.552;2023-11-22T09:28:04;10.53;;;9.40;;
1691;SDS011;843;52.054;8.552;2023-11-22T09:30:32;7.97;;;7.27;;
1691;SDS011;843;52.054;8.552;2023-11-22T09:33:01;9.70;;;8.90;;
1691;SDS011;843;52.054;8.552;2023-11-22T09:35:28;10.10;;;9.20;;
1691;SDS011;843;52.054;8.552;2023-11-22T09:37:56;9.73;;;9.03;;
1691;SDS011;843;52.054;8.552;2023-11-22T09:40:22;10.23;;;8.60;;
1691;SDS011;843;52.054;8.552;2023-11-22T09:42:49;9.47;;;8.77;;
1691;SDS011;843;52.054;8.552;2023-11-22T09:45:20;9.17;;;8.27;;
1691;SDS011;843;52.054;8.552;2023-11-22T09:47:47;12.70;;;9.07;;
1691;SDS011;843;52.054;8.552;2023-11-22T09:50:17;8.83;;;8.13;;
1691;SDS011;843;52.054;8.552;2023-11-22T09:52:46;9.77;;;8.97;;
1691;SDS011;843;52.054;8.552;2023-11-22T09:55:15;9.50;;;8.00;;
1691;SDS011;843;52.054;8.552;2023-11-22T09:57:42;9.43;;;8.53;;
1691;SDS011;843;52.054;8.552;2023-11-22T10:00:09;9.67;;;8.73;;
1691;SDS011;843;52.054;8.552;2023-11-22T10:02:39;9.07;;;8.40;;
1691;SDS011;843;52.054;8.552;2023-11-22T10:05:06;9.60;;;8.80;;
1691;SDS011;843;52.054;8.552;2023-11-22T10:07:35;8.33;;;7.63;;
1691;SDS011;843;52.054;8.552;2023-11-22T10:10:02;8.77;;;7.97;;
1691;SDS011;843;52.054;8.552;2023-11-22T10:12:31;9.77;;;8.93;;
1691;SDS011;843;52.054;8.552;2023-11-22T10:15:10;9.03;;;8.23;;
1691;SDS011;843;52.054;8.552;2023-11-22T10:17:37;8.93;;;8.00;;
1691;SDS011;843;52.054;8.552;2023-11-22T10:20:04;7.40;;;6.83;;
1691;SDS011;843;52.054;8.552;2023-11-22T10:22:42;8.70;;;8.00;;
1691;SDS011;843;52.054;8.552;2023-11-22T10:25:10;8.07;;;7.47;;
1691;SDS011;843;52.054;8.552;2023-11-22T10:27:38;9.87;;;8.90;;
1691;SDS011;843;52.054;8.552;2023-11-22T10:30:05;8.40;;;7.80;;
1691;SDS011;843;52.054;8.552;2023-11-22T10:32:31;8.67;;;7.80;;
1691;SDS011;843;52.054;8.552;2023-11-22T10:34:58;9.10;;;8.20;;
1691;SDS011;843;52.054;8.552;2023-11-22T10:37:25;8.87;;;8.00;;
1691;SDS011;843;52.054;8.552;2023-11-22T10:39:53;9.47;;;8.67;;
1691;SDS011;843;52.054;8.552;2023-11-22T10:42:20;9.27;;;8.47;;
1691;SDS011;843;52.054;8.552;2023-11-22T10:44:48;8.17;;;7.63;;
1691;SDS011;843;52.054;8.552;2023-11-22T10:47:15;9.40;;;8.60;;
1691;SDS011;843;52.054;8.552;2023-11-22T10:49:42;8.90;;;8.10;;
1691;SDS011;843;52.054;8.552;2023-11-22T10:52:09;9.00;;;8.30;;
1691;SDS011;843;52.054;8.552;2023-11-22T10:54:36;8.57;;;7.77;;
1691;SDS011;843;52.054;8.552;2023-11-22T10:57:07;8.80;;;8.10;;
1691;SDS011;843;52.054;8.552;2023-11-22T10:59:33;7.80;;;7.20;;
1691;SDS011;843;52.054;8.552;2023-11-22T11:02:01;8.50;;;7.70;;
1691;SDS011;843;52.054;8.552;2023-11-22T11:04:29;8.20;;;7.57;;
1691;SDS011;843;52.054;8.552;2023-11-22T11:07:00;8.73;;;8.03;;
1691;SDS011;843;52.054;8.552;2023-11-22T11:09:27;8.53;;;7.83;;
1691;SDS011;843;52.054;8.552;2023-11-22T11:11:57;7.40;;;6.90;;
1691;SDS011;843;52.054;8.552;2023-11-22T11:14:25;8.63;;;7.93;;
1691;SDS011;843;52.054;8.552;2023-11-22T11:16:52;8.20;;;7.60;;
1691;SDS011;843;52.054;8.552;2023-11-22T11:19:19;10.83;;;8.30;;
1691;SDS011;843;52.054;8.552;2023-11-22T11:21:47;7.90;;;7.37;;
1691;SDS011;843;52.054;8.552;2023-11-22T11:24:14;8.63;;;7.80;;
1691;SDS011;843;52.054;8.552;2023-11-22T11:26:40;8.37;;;7.70;;
1691;SDS011;843;52.054;8.552;2023-11-22T11:31:56;8.10;;;7.40;;
1691;SDS011;843;52.054;8.552;2023-11-22T11:34:23;8.13;;;7.53;;
1691;SDS011;843;52.054;8.552;2023-11-22T11:36:52;7.20;;;6.80;;
1691;SDS011;843;52.054;8.552;2023-11-22T11:39:21;8.27;;;7.77;;
1691;SDS011;843;52.054;8.552;2023-11-22T11:41:51;8.90;;;8.23;;
1691;SDS011;843;52.054;8.552;2023-11-22T11:44:18;8.20;;;7.50;;
1691;SDS011;843;52.054;8.552;2023-11-22T11:46:45;7.90;;;7.40;;
1691;SDS011;843;52.054;8.552;2023-11-22T11:49:12;7.30;;;6.90;;
1691;SDS011;843;52.054;8.552;2023-11-22T11:51:39;7.90;;;7.40;;
1691;SDS011;843;52.054;8.552;2023-11-22T11:54:07;8.43;;;7.83;;
1691;SDS011;843;52.054;8.552;2023-11-22T11:56:34;7.40;;;6.90;;
1691;SDS011;843;52.054;8.552;2023-11-22T11:59:01;7.70;;;7.20;;
1691;SDS011;843;52.054;8.552;2023-11-22T12:01:28;7.60;;;7.00;;
1691;SDS011;843;52.054;8.552;2023-11-22T12:03:57;8.53;;;7.83;;
1691;SDS011;843;52.054;8.552;2023-11-22T12:06:25;7.43;;;7.03;;
1691;SDS011;843;52.054;8.552;2023-11-22T12:08:51;8.30;;;7.80;;
1691;SDS011;843;52.054;8.552;2023-11-22T12:11:18;7.33;;;6.87;;
1691;SDS011;843;52.054;8.552;2023-11-22T12:13:44;6.40;;;5.97;;
1691;SDS011;843;52.054;8.552;2023-11-22T12:16:14;12.07;;;11.33;;
1691;SDS011;843;52.054;8.552;2023-11-22T12:18:42;12.90;;;12.10;;
1691;SDS011;843;52.054;8.552;2023-11-22T12:21:09;13.27;;;12.20;;
1691;SDS011;843;52.054;8.552;2023-11-22T12:23:39;12.07;;;11.37;;
1691;SDS011;843;52.054;8.552;2023-11-22T12:26:09;12.70;;;11.90;;
1691;SDS011;843;52.054;8.552;2023-11-22T12:28:36;10.90;;;10.30;;
1691;SDS011;843;52.054;8.552;2023-11-22T12:31:06;10.93;;;10.13;;
1691;SDS011;843;52.054;8.552;2023-11-22T12:33:32;11.07;;;10.37;;
1691;SDS011;843;52.054;8.552;2023-11-22T12:36:00;11.20;;;10.50;;
1691;SDS011;843;52.054;8.552;2023-11-22T12:38:27;11.87;;;11.00;;
1691;SDS011;843;52.054;8.552;2023-11-22T12:40:57;10.17;;;9.57;;
1691;SDS011;843;52.054;8.552;2023-11-22T12:43:24;10.80;;;10.00;;
1691;SDS011;843;52.054;8.552;2023-11-22T12:45:57;10.70;;;10.10;;
1691;SDS011;843;52.054;8.552;2023-11-22T12:48:24;11.53;;;10.90;;
1691;SDS011;843;52.054;8.552;2023-11-22T12:50:52;11.20;;;10.50;;
1691;SDS011;843;52.054;8.552;2023-11-22T12:53:19;10.50;;;9.70;;
1691;SDS011;843;52.054;8.552;2023-11-22T12:55:48;7.00;;;6.50;;
1691;SDS011;843;52.054;8.552;2023-11-22T12:58:16;11.50;;;10.70;;
1691;SDS011;843;52.054;8.552;2023-11-22T13:00:43;7.57;;;6.87;;
1691;SDS011;843;52.054;8.552;2023-11-22T13:03:10;11.67;;;10.97;;
1691;SDS011;843;52.054;8.552;2023-11-22T13:05:36;8.20;;;7.50;;
1691;SDS011;843;52.054;8.552;2023-11-22T13:08:03;6.27;;;5.77;;
1691;SDS011;843;52.054;8.552;2023-11-22T13:10:30;6.90;;;6.40;;
1691;SDS011;843;52.054;8.552;2023-11-22T13:12:56;7.27;;;6.67;;
1691;SDS011;843;52.054;8.552;2023-11-22T13:15:25;10.20;;;9.70;;
1691;SDS011;843;52.054;8.552;2023-11-22T13:17:52;11.80;;;11.10;;
1691;SDS011;843;52.054;8.552;2023-11-22T13:20:21;8.00;;;6.83;;
1691;SDS011;843;52.054;8.552;2023-11-22T13:22:47;8.60;;;7.80;;
1691;SDS011;843;52.054;8.552;2023-11-22T13:25:14;8.37;;;7.60;;
1691;SDS011;843;52.054;8.552;2023-11-22T13:27:42;7.40;;;6.90;;
1691;SDS011;843;52.054;8.552;2023-11-22T13:30:09;7.70;;;7.30;;
1691;SDS011;843;52.054;8.552;2023-11-22T13:32:37;7.40;;;6.90;;
1691;SDS011;843;52.054;8.552;2023-11-22T13:35:06;11.47;;;10.90;;
1691;SDS011;843;52.054;8.552;2023-11-22T13:37:39;7.43;;;6.83;;
1691;SDS011;843;52.054;8.552;2023-11-22T13:40:08;7.10;;;6.70;;
1691;SDS011;843;52.054;8.552;2023-11-22T13:42:37;8.30;;;7.70;;
1691;SDS011;843;52.054;8.552;2023-11-22T13:45:04;8.70;;;8.10;;
1691;SDS011;843;52.054;8.552;2023-11-22T13:47:32;12.00;;;11.00;;
1691;SDS011;843;52.054;8.552;2023-11-22T13:49:59;12.10;;;11.40;;
1691;SDS011;843;52.054;8.552;2023-11-22T13:52:26;11.57;;;10.93;;
1691;SDS011;843;52.054;8.552;2023-11-22T13:54:53;7.97;;;7.37;;
1691;SDS011;843;52.054;8.552;2023-11-22T13:57:22;7.30;;;6.90;;
1691;SDS011;843;52.054;8.552;2023-11-22T13:59:48;8.03;;;7.53;;
1691;SDS011;843;52.054;8.552;2023-11-22T14:02:15;9.60;;;9.00;;
1691;SDS011;843;52.054;8.552;2023-11-22T14:04:42;8.57;;;7.97;;
1691;SDS011;843;52.054;8.552;2023-11-22T14:07:10;8.23;;;7.63;;
1691;SDS011;843;52.054;8.552;2023-11-22T14:09:36;9.30;;;8.53;;
1691;SDS011;843;52.054;8.552;2023-11-22T14:12:03;9.20;;;8.60;;
1691;SDS011;843;52.054;8.552;2023-11-22T14:14:29;9.20;;;8.53;;
1691;SDS011;843;52.054;8.552;2023-11-22T14:16:56;10.03;;;9.13;;
1691;SDS011;843;52.054;8.552;2023-11-22T14:19:22;9.50;;;8.70;;
1691;SDS011;843;52.054;8.552;2023-11-22T14:21:49;9.43;;;8.83;;
1691;SDS011;843;52.054;8.552;2023-11-22T14:24:17;9.70;;;8.90;;
1691;SDS011;843;52.054;8.552;2023-11-22T14:26:43;10.73;;;10.03;;
1691;SDS011;843;52.054;8.552;2023-11-22T14:29:14;10.90;;;10.10;;
1691;SDS011;843;52.054;8.552;2023-11-22T14:31:41;14.70;;;13.70;;
1691;SDS011;843;52.054;8.552;2023-11-22T14:34:07;10.40;;;9.60;;
1691;SDS011;843;52.054;8.552;2023-11-22T14:36:37;10.10;;;9.23;;
1691;SDS011;843;52.054;8.552;2023-11-22T14:39:03;9.97;;;8.97;;
1691;SDS011;843;52.054;8.552;2023-11-22T14:41:33;10.10;;;9.37;;
1691;SDS011;843;52.054;8.552;2023-11-22T14:44:00;13.20;;;8.33;;
1691;SDS011;843;52.054;8.552;2023-11-22T14:46:26;10.40;;;9.70;;
1691;SDS011;843;52.054;8.552;2023-11-22T14:48:53;10.43;;;9.53;;
1691;SDS011;843;52.054;8.552;2023-11-22T14:51:19;9.80;;;8.90;;
1691;SDS011;843;52.054;8.552;2023-11-22T14:53:45;9.67;;;8.80;;
1691;SDS011;843;52.054;8.552;2023-11-22T14:56:12;8.93;;;8.13;;
1691;SDS011;843;52.054;8.552;2023-11-22T14:58:40;14.07;;;12.87;;
1691;SDS011;843;52.054;8.552;2023-11-22T15:01:07;9.60;;;8.73;;
1691;SDS011;843;52.054;8.552;2023-11-22T15:03:34;9.30;;;8.60;;
1691;SDS011;843;52.054;8.552;2023-11-22T15:06:01;9.47;;;8.70;;
1691;SDS011;843;52.054;8.552;2023-11-22T15:08:27;10.70;;;9.90;;
1691;SDS011;843;52.054;8.552;2023-11-22T15:10:54;10.97;;;9.97;;
1691;SDS011;843;52.054;8.552;2023-11-22T15:13:20;11.13;;;10.13;;
1691;SDS011;843;52.054;8.552;2023-11-22T15:15:48;10.80;;;9.80;;
1691;SDS011;843;52.054;8.552;2023-11-22T15:18:15;10.60;;;9.80;;
1691;SDS011;843;52.054;8.552;2023-11-22T15:20:41;11.47;;;10.77;;
1691;SDS011;843;52.054;8.552;2023-11-22T15:23:08;9.67;;;8.97;;
1691;SDS011;843;52.054;8.552;2023-11-22T15:25:34;13.77;;;12.77;;
1691;SDS011;843;52.054;8.552;2023-11-22T15:28:01;10.60;;;9.80;;